sensor_id;sensor_type;location;lat;lon;timestamp;P1;durP1;ratioP1;P2;durP2;ratioP2
1404;SDS011;697;51.114;6.542;2022-10-22T00:01:55;7.87;;;3.13;;
1404;SDS011;697;51.114;6.542;2022-10-22T00:04:22;9.23;;;3.77;;
1404;SDS011;697;51.114;6.542;2022-10-22T00:06:49;5.03;;;3.73;;
1404;SDS011;697;51.114;6.542;2022-10-22T00:09:16;5.07;;;3.33;;
1404;SDS011;697;51.114;6.542;2022-10-22T00:11:42;4.10;;;3.17;;
1404;SDS011;697;51.114;6.542;2022-10-22T00:14:09;7.00;;;2.97;;
1404;SDS011;697;51.114;6.542;2022-10-22T00:16:38;5.90;;;2.70;;
1404;SDS011;697;51.114;6.542;2022-10-22T00:19:05;5.70;;;3.00;;
1404;SDS011;697;51.114;6.542;2022-10-22T00:21:33;3.33;;;2.50;;
1404;SDS011;697;51.114;6.542;2022-10-22T00:23:59;8.63;;;3.77;;
1404;SDS011;697;51.114;6.542;2022-10-22T00:26:26;5.50;;;2.37;;
1404;SDS011;697;51.114;6.542;2022-10-22T00:28:53;7.90;;;3.60;;
1404;SDS011;697;51.114;6.542;2022-10-22T00:31:20;12.10;;;3.90;;
1404;SDS011;697;51.114;6.542;2022-10-22T00:33:48;11.37;;;3.77;;
1404;SDS011;697;51.114;6.542;2022-10-22T00:36:15;10.60;;;3.97;;
1404;SDS011;697;51.114;6.542;2022-10-22T00:38:41;3.57;;;3.27;;
1404;SDS011;697;51.114;6.542;2022-10-22T00:41:08;7.83;;;3.47;;
1404;SDS011;697;51.114;6.542;2022-10-22T00:46:21;6.10;;;3.10;;
1404;SDS011;697;51.114;6.542;2022-10-22T00:48:49;7.33;;;3.00;;
1404;SDS011;697;51.114;6.542;2022-10-22T00:51:17;4.13;;;3.00;;
1404;SDS011;697;51.114;6.542;2022-10-22T00:53:47;4.47;;;3.27;;
1404;SDS011;697;51.114;6.542;2022-10-22T00:56:17;5.37;;;3.10;;
1404;SDS011;697;51.114;6.542;2022-10-22T00:58:46;8.47;;;3.87;;
1404;SDS011;697;51.114;6.542;2022-10-22T01:01:18;4.47;;;3.10;;
1404;SDS011;697;51.114;6.542;2022-10-22T01:03:47;5.73;;;3.00;;
1404;SDS011;697;51.114;6.542;2022-10-22T01:06:17;7.10;;;3.37;;
1404;SDS011;697;51.114;6.542;2022-10-22T01:08:52;10.13;;;2.90;;
1404;SDS011;697;51.114;6.542;2022-10-22T01:11:24;9.77;;;3.40;;
1404;SDS011;697;51.114;6.542;2022-10-22T01:13:56;3.80;;;2.67;;
1404;SDS011;697;51.114;6.542;2022-10-22T01:16:31;7.17;;;3.93;;
1404;SDS011;697;51.114;6.542;2022-10-22T01:19:07;6.20;;;3.93;;
1404;SDS011;697;51.114;6.542;2022-10-22T01:21:51;5.10;;;3.50;;
1404;SDS011;697;51.114;6.542;2022-10-22T01:24:27;9.00;;;3.60;;
1404;SDS011;697;51.114;6.542;2022-10-22T01:27:06;6.00;;;4.10;;
1404;SDS011;697;51.114;6.542;2022-10-22T01:29:42;6.47;;;3.73;;
1404;SDS011;697;51.114;6.542;2022-10-22T01:32:13;4.63;;;4.20;;
1404;SDS011;697;51.114;6.542;2022-10-22T01:34:43;4.43;;;4.03;;
1404;SDS011;697;51.114;6.542;2022-10-22T01:37:13;6.20;;;4.83;;
1404;SDS011;697;51.114;6.542;2022-10-22T01:39:42;10.60;;;5.17;;
1404;SDS011;697;51.114;6.542;2022-10-22T01:42:12;4.60;;;4.00;;
1404;SDS011;697;51.114;6.542;2022-10-22T01:44:39;6.90;;;4.90;;
1404;SDS011;697;51.114;6.542;2022-10-22T01:47:10;7.27;;;4.50;;
1404;SDS011;697;51.114;6.542;2022-10-22T01:49:46;6.53;;;5.53;;
1404;SDS011;697;51.114;6.542;2022-10-22T01:52:26;7.93;;;5.23;;
1404;SDS011;697;51.114;6.542;2022-10-22T01:55:06;7.27;;;5.60;;
1404;SDS011;697;51.114;6.542;2022-10-22T01:57:40;9.10;;;5.53;;
1404;SDS011;697;51.114;6.542;2022-10-22T02:00:15;10.43;;;5.60;;
1404;SDS011;697;51.114;6.542;2022-10-22T02:02:46;5.83;;;5.33;;
1404;SDS011;697;51.114;6.542;2022-10-22T02:05:20;6.27;;;5.70;;
1404;SDS011;697;51.114;6.542;2022-10-22T02:07:50;11.47;;;6.10;;
1404;SDS011;697;51.114;6.542;2022-10-22T02:10:20;8.90;;;6.60;;
1404;SDS011;697;51.114;6.542;2022-10-22T02:12:49;8.63;;;5.20;;
1404;SDS011;697;51.114;6.542;2022-10-22T02:15:18;12.87;;;6.33;;
1404;SDS011;697;51.114;6.542;2022-10-22T02:17:48;9.37;;;6.20;;
1404;SDS011;697;51.114;6.542;2022-10-22T02:20:16;7.90;;;5.23;;
1404;SDS011;697;51.114;6.542;2022-10-22T02:22:44;8.73;;;5.90;;
1404;SDS011;697;51.114;6.542;2022-10-22T02:25:12;7.90;;;5.80;;
1404;SDS011;697;51.114;6.542;2022-10-22T02:27:40;7.37;;;5.53;;
1404;SDS011;697;51.114;6.542;2022-10-22T02:30:10;8.27;;;5.43;;
1404;SDS011;697;51.114;6.542;2022-10-22T02:32:41;5.13;;;4.63;;
1404;SDS011;697;51.114;6.542;2022-10-22T02:35:15;7.00;;;4.93;;
1404;SDS011;697;51.114;6.542;2022-10-22T02:37:45;6.77;;;5.03;;
1404;SDS011;697;51.114;6.542;2022-10-22T02:40:13;13.43;;;5.17;;
1404;SDS011;697;51.114;6.542;2022-10-22T02:42:40;6.43;;;4.40;;
1404;SDS011;697;51.114;6.542;2022-10-22T02:45:08;10.43;;;4.37;;
1404;SDS011;697;51.114;6.542;2022-10-22T02:47:35;7.03;;;4.07;;
1404;SDS011;697;51.114;6.542;2022-10-22T02:50:02;6.43;;;4.53;;
1404;SDS011;697;51.114;6.542;2022-10-22T02:52:31;6.33;;;4.07;;
1404;SDS011;697;51.114;6.542;2022-10-22T02:54:57;5.67;;;4.50;;
1404;SDS011;697;51.114;6.542;2022-10-22T02:57:24;5.53;;;4.93;;
1404;SDS011;697;51.114;6.542;2022-10-22T02:59:51;7.47;;;5.10;;
1404;SDS011;697;51.114;6.542;2022-10-22T03:02:18;6.10;;;4.60;;
1404;SDS011;697;51.114;6.542;2022-10-22T03:04:44;8.00;;;5.00;;
1404;SDS011;697;51.114;6.542;2022-10-22T03:07:11;5.40;;;4.00;;
1404;SDS011;697;51.114;6.542;2022-10-22T03:09:39;10.33;;;3.90;;
1404;SDS011;697;51.114;6.542;2022-10-22T03:12:06;8.40;;;4.87;;
1404;SDS011;697;51.114;6.542;2022-10-22T03:14:33;10.27;;;4.50;;
1404;SDS011;697;51.114;6.542;2022-10-22T03:17:00;5.27;;;4.03;;
1404;SDS011;697;51.114;6.542;2022-10-22T03:19:27;8.10;;;4.13;;
1404;SDS011;697;51.114;6.542;2022-10-22T03:21:54;7.00;;;4.20;;
1404;SDS011;697;51.114;6.542;2022-10-22T03:24:26;5.10;;;4.20;;
1404;SDS011;697;51.114;6.542;2022-10-22T03:26:57;6.30;;;4.20;;
1404;SDS011;697;51.114;6.542;2022-10-22T03:29:24;4.20;;;3.70;;
1404;SDS011;697;51.114;6.542;2022-10-22T03:31:53;6.90;;;4.43;;
1404;SDS011;697;51.114;6.542;2022-10-22T03:34:20;9.70;;;5.20;;
1404;SDS011;697;51.114;6.542;2022-10-22T03:36:47;4.70;;;4.20;;
1404;SDS011;697;51.114;6.542;2022-10-22T03:39:14;8.83;;;4.80;;
1404;SDS011;697;51.114;6.542;2022-10-22T03:41:43;6.20;;;4.67;;
1404;SDS011;697;51.114;6.542;2022-10-22T03:44:12;5.00;;;4.50;;
1404;SDS011;697;51.114;6.542;2022-10-22T03:46:41;7.57;;;5.40;;
1404;SDS011;697;51.114;6.542;2022-10-22T03:49:08;6.10;;;4.13;;
1404;SDS011;697;51.114;6.542;2022-10-22T03:51:35;12.00;;;4.70;;
1404;SDS011;697;51.114;6.542;2022-10-22T03:54:02;7.90;;;4.90;;
1404;SDS011;697;51.114;6.542;2022-10-22T03:56:29;4.93;;;4.10;;
1404;SDS011;697;51.114;6.542;2022-10-22T03:58:56;8.20;;;4.37;;
1404;SDS011;697;51.114;6.542;2022-10-22T04:01:25;8.83;;;4.13;;
1404;SDS011;697;51.114;6.542;2022-10-22T04:03:52;9.63;;;4.77;;
1404;SDS011;697;51.114;6.542;2022-10-22T04:06:19;7.20;;;4.13;;
1404;SDS011;697;51.114;6.542;2022-10-22T04:08:47;6.90;;;4.90;;
1404;SDS011;697;51.114;6.542;2022-10-22T04:11:14;7.00;;;4.03;;
1404;SDS011;697;51.114;6.542;2022-10-22T04:13:42;5.30;;;4.60;;
1404;SDS011;697;51.114;6.542;2022-10-22T04:16:10;5.00;;;4.47;;
1404;SDS011;697;51.114;6.542;2022-10-22T04:18:40;5.10;;;4.40;;
1404;SDS011;697;51.114;6.542;2022-10-22T04:21:08;7.27;;;4.63;;
1404;SDS011;697;51.114;6.542;2022-10-22T04:23:36;23.53;;;5.20;;
1404;SDS011;697;51.114;6.542;2022-10-22T04:26:04;7.10;;;3.90;;
1404;SDS011;697;51.114;6.542;2022-10-22T04:28:32;7.70;;;4.23;;
1404;SDS011;697;51.114;6.542;2022-10-22T04:30:59;5.80;;;3.97;;
1404;SDS011;697;51.114;6.542;2022-10-22T04:33:32;6.60;;;4.57;;
1404;SDS011;697;51.114;6.542;2022-10-22T04:36:00;5.30;;;4.30;;
1404;SDS011;697;51.114;6.542;2022-10-22T04:38:31;7.57;;;4.40;;
1404;SDS011;697;51.114;6.542;2022-10-22T04:41:06;7.60;;;4.70;;
1404;SDS011;697;51.114;6.542;2022-10-22T04:43:33;9.40;;;4.27;;
1404;SDS011;697;51.114;6.542;2022-10-22T04:46:00;5.40;;;3.90;;
1404;SDS011;697;51.114;6.542;2022-10-22T04:48:27;6.47;;;4.03;;
1404;SDS011;697;51.114;6.542;2022-10-22T04:50:55;6.37;;;4.23;;
1404;SDS011;697;51.114;6.542;2022-10-22T04:53:23;7.97;;;3.67;;
1404;SDS011;697;51.114;6.542;2022-10-22T04:55:50;6.20;;;4.30;;
1404;SDS011;697;51.114;6.542;2022-10-22T04:58:16;7.50;;;4.70;;
1404;SDS011;697;51.114;6.542;2022-10-22T05:00:43;8.50;;;5.20;;
1404;SDS011;697;51.114;6.542;2022-10-22T05:03:10;6.83;;;4.60;;
1404;SDS011;697;51.114;6.542;2022-10-22T05:05:36;5.60;;;3.70;;
1404;SDS011;697;51.114;6.542;2022-10-22T05:08:03;6.80;;;5.17;;
1404;SDS011;697;51.114;6.542;2022-10-22T05:10:31;8.57;;;4.60;;
1404;SDS011;697;51.114;6.542;2022-10-22T05:12:58;6.10;;;4.70;;
1404;SDS011;697;51.114;6.542;2022-10-22T05:15:25;9.13;;;5.13;;
1404;SDS011;697;51.114;6.542;2022-10-22T05:17:51;9.70;;;4.40;;
1404;SDS011;697;51.114;6.542;2022-10-22T05:20:18;5.97;;;3.90;;
1404;SDS011;697;51.114;6.542;2022-10-22T05:22:45;7.83;;;4.10;;
1404;SDS011;697;51.114;6.542;2022-10-22T05:25:11;5.93;;;3.70;;
1404;SDS011;697;51.114;6.542;2022-10-22T05:27:39;6.73;;;5.00;;
1404;SDS011;697;51.114;6.542;2022-10-22T05:30:06;11.47;;;6.73;;
1404;SDS011;697;51.114;6.542;2022-10-22T05:32:34;9.47;;;3.90;;
1404;SDS011;697;51.114;6.542;2022-10-22T05:35:00;7.30;;;5.70;;
1404;SDS011;697;51.114;6.542;2022-10-22T05:37:27;6.80;;;4.63;;
1404;SDS011;697;51.114;6.542;2022-10-22T05:39:54;6.17;;;3.87;;
1404;SDS011;697;51.114;6.542;2022-10-22T05:42:21;7.47;;;4.50;;
1404;SDS011;697;51.114;6.542;2022-10-22T05:44:49;10.20;;;4.50;;
1404;SDS011;697;51.114;6.542;2022-10-22T05:47:15;7.30;;;4.23;;
1404;SDS011;697;51.114;6.542;2022-10-22T05:49:42;6.43;;;3.93;;
1404;SDS011;697;51.114;6.542;2022-10-22T05:52:09;6.10;;;4.17;;
1404;SDS011;697;51.114;6.542;2022-10-22T05:54:36;10.33;;;3.60;;
1404;SDS011;697;51.114;6.542;2022-10-22T05:57:03;8.03;;;3.50;;
1404;SDS011;697;51.114;6.542;2022-10-22T05:59:30;7.90;;;4.57;;
1404;SDS011;697;51.114;6.542;2022-10-22T06:01:58;8.90;;;4.30;;
1404;SDS011;697;51.114;6.542;2022-10-22T06:04:24;12.13;;;3.63;;
1404;SDS011;697;51.114;6.542;2022-10-22T06:06:51;7.57;;;3.73;;
1404;SDS011;697;51.114;6.542;2022-10-22T06:09:20;10.43;;;3.70;;
1404;SDS011;697;51.114;6.542;2022-10-22T06:11:50;6.60;;;3.60;;
1404;SDS011;697;51.114;6.542;2022-10-22T06:14:17;8.90;;;3.30;;
1404;SDS011;697;51.114;6.542;2022-10-22T06:16:44;8.40;;;3.60;;
1404;SDS011;697;51.114;6.542;2022-10-22T06:19:13;9.47;;;3.33;;
1404;SDS011;697;51.114;6.542;2022-10-22T06:21:42;9.73;;;3.60;;
1404;SDS011;697;51.114;6.542;2022-10-22T06:24:09;8.20;;;3.50;;
1404;SDS011;697;51.114;6.542;2022-10-22T06:26:36;6.50;;;3.23;;
1404;SDS011;697;51.114;6.542;2022-10-22T06:29:03;9.37;;;3.73;;
1404;SDS011;697;51.114;6.542;2022-10-22T06:31:30;9.47;;;3.80;;
1404;SDS011;697;51.114;6.542;2022-10-22T06:34:00;9.87;;;3.70;;
1404;SDS011;697;51.114;6.542;2022-10-22T06:36:29;5.73;;;2.67;;
1404;SDS011;697;51.114;6.542;2022-10-22T06:38:55;6.63;;;4.40;;
1404;SDS011;697;51.114;6.542;2022-10-22T06:41:22;9.00;;;3.40;;
1404;SDS011;697;51.114;6.542;2022-10-22T06:43:50;6.27;;;3.13;;
1404;SDS011;697;51.114;6.542;2022-10-22T06:46:19;6.70;;;3.30;;
1404;SDS011;697;51.114;6.542;2022-10-22T06:48:50;5.77;;;2.40;;
1404;SDS011;697;51.114;6.542;2022-10-22T06:51:18;9.77;;;2.90;;
1404;SDS011;697;51.114;6.542;2022-10-22T06:53:47;5.60;;;2.40;;
1404;SDS011;697;51.114;6.542;2022-10-22T06:56:15;6.93;;;2.77;;
1404;SDS011;697;51.114;6.542;2022-10-22T06:58:45;5.50;;;2.90;;
1404;SDS011;697;51.114;6.542;2022-10-22T07:01:13;6.63;;;2.50;;
1404;SDS011;697;51.114;6.542;2022-10-22T07:03:42;10.03;;;2.43;;
1404;SDS011;697;51.114;6.542;2022-10-22T07:06:10;5.30;;;2.90;;
1404;SDS011;697;51.114;6.542;2022-10-22T07:08:38;6.40;;;2.70;;
1404;SDS011;697;51.114;6.542;2022-10-22T07:11:08;5.23;;;2.70;;
1404;SDS011;697;51.114;6.542;2022-10-22T07:13:36;8.37;;;2.83;;
1404;SDS011;697;51.114;6.542;2022-10-22T07:16:03;7.00;;;2.60;;
1404;SDS011;697;51.114;6.542;2022-10-22T07:18:31;5.37;;;2.37;;
1404;SDS011;697;51.114;6.542;2022-10-22T07:20:58;12.07;;;2.50;;
1404;SDS011;697;51.114;6.542;2022-10-22T07:23:25;6.20;;;2.60;;
1404;SDS011;697;51.114;6.542;2022-10-22T07:25:52;7.43;;;2.03;;
1404;SDS011;697;51.114;6.542;2022-10-22T07:28:20;6.43;;;2.17;;
1404;SDS011;697;51.114;6.542;2022-10-22T07:30:47;4.77;;;2.70;;
1404;SDS011;697;51.114;6.542;2022-10-22T07:33:13;8.43;;;2.37;;
1404;SDS011;697;51.114;6.542;2022-10-22T07:35:40;5.23;;;2.53;;
1404;SDS011;697;51.114;6.542;2022-10-22T07:38:08;9.40;;;2.87;;
1404;SDS011;697;51.114;6.542;2022-10-22T07:40:35;10.03;;;2.53;;
1404;SDS011;697;51.114;6.542;2022-10-22T07:43:02;9.83;;;2.57;;
1404;SDS011;697;51.114;6.542;2022-10-22T07:45:30;6.03;;;3.00;;
1404;SDS011;697;51.114;6.542;2022-10-22T07:47:57;7.27;;;2.37;;
1404;SDS011;697;51.114;6.542;2022-10-22T07:50:25;6.90;;;2.23;;
1404;SDS011;697;51.114;6.542;2022-10-22T07:52:52;13.80;;;2.67;;
1404;SDS011;697;51.114;6.542;2022-10-22T07:55:19;8.00;;;2.03;;
1404;SDS011;697;51.114;6.542;2022-10-22T07:57:46;7.90;;;2.50;;
1404;SDS011;697;51.114;6.542;2022-10-22T08:00:12;11.30;;;3.00;;
1404;SDS011;697;51.114;6.542;2022-10-22T08:02:41;5.10;;;2.47;;
1404;SDS011;697;51.114;6.542;2022-10-22T08:05:08;6.03;;;2.57;;
1404;SDS011;697;51.114;6.542;2022-10-22T08:07:37;5.23;;;2.63;;
1404;SDS011;697;51.114;6.542;2022-10-22T08:10:04;12.60;;;2.27;;
1404;SDS011;697;51.114;6.542;2022-10-22T08:12:32;7.90;;;2.27;;
1404;SDS011;697;51.114;6.542;2022-10-22T08:14:58;6.80;;;1.90;;
1404;SDS011;697;51.114;6.542;2022-10-22T08:17:25;5.77;;;2.53;;
1404;SDS011;697;51.114;6.542;2022-10-22T08:19:54;6.00;;;2.70;;
1404;SDS011;697;51.114;6.542;2022-10-22T08:22:20;9.90;;;2.80;;
1404;SDS011;697;51.114;6.542;2022-10-22T08:24:47;6.43;;;2.50;;
1404;SDS011;697;51.114;6.542;2022-10-22T08:27:14;7.37;;;2.23;;
1404;SDS011;697;51.114;6.542;2022-10-22T08:29:41;7.30;;;2.73;;
1404;SDS011;697;51.114;6.542;2022-10-22T08:32:07;10.03;;;2.20;;
1404;SDS011;697;51.114;6.542;2022-10-22T08:34:34;7.13;;;2.40;;
1404;SDS011;697;51.114;6.542;2022-10-22T08:37:02;6.93;;;2.07;;
1404;SDS011;697;51.114;6.542;2022-10-22T08:39:29;6.77;;;2.00;;
1404;SDS011;697;51.114;6.542;2022-10-22T08:41:58;9.60;;;2.37;;
1404;SDS011;697;51.114;6.542;2022-10-22T08:44:38;4.77;;;2.67;;
1404;SDS011;697;51.114;6.542;2022-10-22T08:47:21;8.30;;;2.30;;
1404;SDS011;697;51.114;6.542;2022-10-22T08:49:56;5.30;;;2.40;;
1404;SDS011;697;51.114;6.542;2022-10-22T08:52:26;10.30;;;2.67;;
1404;SDS011;697;51.114;6.542;2022-10-22T08:54:53;7.63;;;2.10;;
1404;SDS011;697;51.114;6.542;2022-10-22T08:57:25;13.07;;;3.93;;
1404;SDS011;697;51.114;6.542;2022-10-22T09:00:10;4.10;;;2.40;;
1404;SDS011;697;51.114;6.542;2022-10-22T09:02:40;4.77;;;2.13;;
1404;SDS011;697;51.114;6.542;2022-10-22T09:05:24;4.90;;;1.60;;
1404;SDS011;697;51.114;6.542;2022-10-22T09:07:59;7.17;;;2.13;;
1404;SDS011;697;51.114;6.542;2022-10-22T09:10:28;11.03;;;3.60;;
1404;SDS011;697;51.114;6.542;2022-10-22T09:13:00;3.60;;;1.60;;
1404;SDS011;697;51.114;6.542;2022-10-22T09:15:27;5.67;;;2.10;;
1404;SDS011;697;51.114;6.542;2022-10-22T09:17:58;5.70;;;2.00;;
1404;SDS011;697;51.114;6.542;2022-10-22T09:20:37;7.27;;;1.93;;
1404;SDS011;697;51.114;6.542;2022-10-22T09:23:16;5.60;;;1.77;;
1404;SDS011;697;51.114;6.542;2022-10-22T09:25:49;5.77;;;1.90;;
1404;SDS011;697;51.114;6.542;2022-10-22T09:28:17;8.13;;;2.30;;
1404;SDS011;697;51.114;6.542;2022-10-22T09:30:44;5.70;;;1.80;;
1404;SDS011;697;51.114;6.542;2022-10-22T09:33:12;3.67;;;1.53;;
1404;SDS011;697;51.114;6.542;2022-10-22T09:35:43;6.13;;;1.37;;
1404;SDS011;697;51.114;6.542;2022-10-22T09:38:12;5.40;;;1.50;;
1404;SDS011;697;51.114;6.542;2022-10-22T09:40:44;3.83;;;1.70;;
1404;SDS011;697;51.114;6.542;2022-10-22T09:43:13;2.60;;;1.13;;
1404;SDS011;697;51.114;6.542;2022-10-22T09:45:41;6.07;;;1.80;;
1404;SDS011;697;51.114;6.542;2022-10-22T09:48:10;4.43;;;1.73;;
1404;SDS011;697;51.114;6.542;2022-10-22T09:50:43;5.30;;;1.10;;
1404;SDS011;697;51.114;6.542;2022-10-22T09:53:13;5.57;;;1.43;;
1404;SDS011;697;51.114;6.542;2022-10-22T09:55:43;5.57;;;1.83;;
1404;SDS011;697;51.114;6.542;2022-10-22T09:58:16;5.57;;;1.70;;
1404;SDS011;697;51.114;6.542;2022-10-22T10:00:45;6.13;;;1.80;;
1404;SDS011;697;51.114;6.542;2022-10-22T10:03:16;8.10;;;2.23;;
1404;SDS011;697;51.114;6.542;2022-10-22T10:05:45;5.70;;;1.43;;
1404;SDS011;697;51.114;6.542;2022-10-22T10:08:15;7.23;;;1.70;;
1404;SDS011;697;51.114;6.542;2022-10-22T10:10:44;3.93;;;1.40;;
1404;SDS011;697;51.114;6.542;2022-10-22T10:13:25;5.60;;;1.63;;
1404;SDS011;697;51.114;6.542;2022-10-22T10:16:05;2.63;;;1.70;;
1404;SDS011;697;51.114;6.542;2022-10-22T10:18:42;6.50;;;1.27;;
1404;SDS011;697;51.114;6.542;2022-10-22T10:21:24;4.83;;;1.43;;
1404;SDS011;697;51.114;6.542;2022-10-22T10:23:59;2.73;;;1.10;;
1404;SDS011;697;51.114;6.542;2022-10-22T10:26:34;5.70;;;1.37;;
1404;SDS011;697;51.114;6.542;2022-10-22T10:29:13;6.80;;;1.70;;
1404;SDS011;697;51.114;6.542;2022-10-22T10:31:51;4.80;;;1.40;;
1404;SDS011;697;51.114;6.542;2022-10-22T10:34:35;6.43;;;2.07;;
1404;SDS011;697;51.114;6.542;2022-10-22T10:37:12;6.83;;;1.20;;
1404;SDS011;697;51.114;6.542;2022-10-22T10:39:50;7.10;;;1.77;;
1404;SDS011;697;51.114;6.542;2022-10-22T10:42:29;3.67;;;1.70;;
1404;SDS011;697;51.114;6.542;2022-10-22T10:45:04;4.23;;;1.17;;
1404;SDS011;697;51.114;6.542;2022-10-22T10:47:46;6.03;;;1.50;;
1404;SDS011;697;51.114;6.542;2022-10-22T10:50:28;4.13;;;1.70;;
1404;SDS011;697;51.114;6.542;2022-10-22T10:53:00;4.97;;;1.10;;
1404;SDS011;697;51.114;6.542;2022-10-22T10:55:35;5.60;;;1.27;;
1404;SDS011;697;51.114;6.542;2022-10-22T11:01:31;4.60;;;1.23;;
1404;SDS011;697;51.114;6.542;2022-10-22T11:04:15;5.63;;;2.43;;
1404;SDS011;697;51.114;6.542;2022-10-22T11:06:49;2.97;;;1.30;;
1404;SDS011;697;51.114;6.542;2022-10-22T11:09:29;3.77;;;1.20;;
1404;SDS011;697;51.114;6.542;2022-10-22T11:12:03;2.47;;;1.00;;
1404;SDS011;697;51.114;6.542;2022-10-22T11:14:38;5.80;;;1.60;;
1404;SDS011;697;51.114;6.542;2022-10-22T11:17:13;4.67;;;1.57;;
1404;SDS011;697;51.114;6.542;2022-10-22T11:19:44;4.13;;;1.10;;
1404;SDS011;697;51.114;6.542;2022-10-22T11:22:18;2.63;;;1.17;;
1404;SDS011;697;51.114;6.542;2022-10-22T11:24:51;5.30;;;1.90;;
1404;SDS011;697;51.114;6.542;2022-10-22T11:27:26;7.83;;;1.40;;
1404;SDS011;697;51.114;6.542;2022-10-22T11:30:03;6.53;;;1.83;;
1404;SDS011;697;51.114;6.542;2022-10-22T11:32:36;5.57;;;1.63;;
1404;SDS011;697;51.114;6.542;2022-10-22T11:35:06;4.83;;;1.23;;
1404;SDS011;697;51.114;6.542;2022-10-22T11:37:36;5.47;;;1.20;;
1404;SDS011;697;51.114;6.542;2022-10-22T11:40:05;10.33;;;1.20;;
1404;SDS011;697;51.114;6.542;2022-10-22T11:42:36;4.43;;;1.13;;
1404;SDS011;697;51.114;6.542;2022-10-22T11:45:04;7.50;;;1.20;;
1404;SDS011;697;51.114;6.542;2022-10-22T11:47:56;4.53;;;1.50;;
1404;SDS011;697;51.114;6.542;2022-10-22T11:50:43;1.70;;;0.83;;
1404;SDS011;697;51.114;6.542;2022-10-22T11:53:19;6.07;;;1.30;;
1404;SDS011;697;51.114;6.542;2022-10-22T11:55:54;3.40;;;1.20;;
1404;SDS011;697;51.114;6.542;2022-10-22T11:58:29;5.07;;;1.00;;
1404;SDS011;697;51.114;6.542;2022-10-22T12:03:50;4.07;;;1.13;;
1404;SDS011;697;51.114;6.542;2022-10-22T12:06:19;3.53;;;1.00;;
1404;SDS011;697;51.114;6.542;2022-10-22T12:08:55;3.77;;;1.20;;
1404;SDS011;697;51.114;6.542;2022-10-22T12:11:25;4.07;;;1.57;;
1404;SDS011;697;51.114;6.542;2022-10-22T12:14:00;2.37;;;0.93;;
1404;SDS011;697;51.114;6.542;2022-10-22T12:16:43;7.60;;;1.30;;
1404;SDS011;697;51.114;6.542;2022-10-22T12:19:12;4.00;;;0.90;;
1404;SDS011;697;51.114;6.542;2022-10-22T12:21:41;3.27;;;1.20;;
1404;SDS011;697;51.114;6.542;2022-10-22T12:24:12;5.57;;;1.43;;
1404;SDS011;697;51.114;6.542;2022-10-22T12:26:40;5.00;;;0.80;;
1404;SDS011;697;51.114;6.542;2022-10-22T12:29:10;5.90;;;1.10;;
1404;SDS011;697;51.114;6.542;2022-10-22T12:31:40;1.40;;;0.83;;
1404;SDS011;697;51.114;6.542;2022-10-22T12:34:12;2.87;;;1.10;;
1404;SDS011;697;51.114;6.542;2022-10-22T12:36:39;5.20;;;1.03;;
1404;SDS011;697;51.114;6.542;2022-10-22T12:39:08;1.67;;;0.90;;
1404;SDS011;697;51.114;6.542;2022-10-22T12:41:39;3.03;;;1.00;;
1404;SDS011;697;51.114;6.542;2022-10-22T12:44:06;2.83;;;1.03;;
1404;SDS011;697;51.114;6.542;2022-10-22T12:46:34;3.80;;;0.90;;
1404;SDS011;697;51.114;6.542;2022-10-22T12:49:02;3.00;;;0.90;;
1404;SDS011;697;51.114;6.542;2022-10-22T12:51:33;2.73;;;1.30;;
1404;SDS011;697;51.114;6.542;2022-10-22T12:54:01;5.10;;;1.10;;
1404;SDS011;697;51.114;6.542;2022-10-22T12:56:32;2.37;;;0.87;;
1404;SDS011;697;51.114;6.542;2022-10-22T12:59:00;4.20;;;1.47;;
1404;SDS011;697;51.114;6.542;2022-10-22T13:01:31;2.77;;;0.97;;
1404;SDS011;697;51.114;6.542;2022-10-22T13:04:05;5.07;;;1.37;;
1404;SDS011;697;51.114;6.542;2022-10-22T13:06:46;2.67;;;1.00;;
1404;SDS011;697;51.114;6.542;2022-10-22T13:09:15;3.57;;;1.00;;
1404;SDS011;697;51.114;6.542;2022-10-22T13:11:49;2.33;;;1.10;;
1404;SDS011;697;51.114;6.542;2022-10-22T13:14:20;3.03;;;1.00;;
1404;SDS011;697;51.114;6.542;2022-10-22T13:17:02;3.43;;;1.03;;
1404;SDS011;697;51.114;6.542;2022-10-22T13:19:38;5.53;;;0.83;;
1404;SDS011;697;51.114;6.542;2022-10-22T13:22:23;2.70;;;0.83;;
1404;SDS011;697;51.114;6.542;2022-10-22T13:24:51;5.63;;;1.23;;
1404;SDS011;697;51.114;6.542;2022-10-22T13:27:20;4.80;;;1.40;;
1404;SDS011;697;51.114;6.542;2022-10-22T13:29:48;4.10;;;1.17;;
1404;SDS011;697;51.114;6.542;2022-10-22T13:32:25;4.77;;;0.90;;
1404;SDS011;697;51.114;6.542;2022-10-22T13:34:55;4.10;;;0.90;;
1404;SDS011;697;51.114;6.542;2022-10-22T13:37:23;2.20;;;0.97;;
1404;SDS011;697;51.114;6.542;2022-10-22T13:39:50;1.70;;;1.10;;
1404;SDS011;697;51.114;6.542;2022-10-22T13:42:16;4.27;;;1.63;;
1404;SDS011;697;51.114;6.542;2022-10-22T13:44:43;5.03;;;1.10;;
1404;SDS011;697;51.114;6.542;2022-10-22T13:47:10;4.97;;;0.70;;
1404;SDS011;697;51.114;6.542;2022-10-22T13:49:51;1.97;;;0.90;;
1404;SDS011;697;51.114;6.542;2022-10-22T13:52:23;3.33;;;0.87;;
1404;SDS011;697;51.114;6.542;2022-10-22T13:54:54;1.73;;;0.90;;
1404;SDS011;697;51.114;6.542;2022-10-22T13:57:21;2.10;;;0.83;;
1404;SDS011;697;51.114;6.542;2022-10-22T13:59:47;3.67;;;0.90;;
1404;SDS011;697;51.114;6.542;2022-10-22T14:02:14;1.67;;;0.70;;
1404;SDS011;697;51.114;6.542;2022-10-22T14:04:42;3.93;;;0.90;;
1404;SDS011;697;51.114;6.542;2022-10-22T14:07:12;2.20;;;0.80;;
1404;SDS011;697;51.114;6.542;2022-10-22T14:09:40;2.13;;;0.80;;
1404;SDS011;697;51.114;6.542;2022-10-22T14:12:09;2.83;;;0.90;;
1404;SDS011;697;51.114;6.542;2022-10-22T14:14:37;3.40;;;0.70;;
1404;SDS011;697;51.114;6.542;2022-10-22T14:17:04;3.23;;;1.00;;
1404;SDS011;697;51.114;6.542;2022-10-22T14:19:34;1.77;;;0.80;;
1404;SDS011;697;51.114;6.542;2022-10-22T14:22:01;1.27;;;0.87;;
1404;SDS011;697;51.114;6.542;2022-10-22T14:24:30;3.17;;;1.00;;
1404;SDS011;697;51.114;6.542;2022-10-22T14:26:57;3.67;;;1.27;;
1404;SDS011;697;51.114;6.542;2022-10-22T14:29:23;5.90;;;1.57;;
1404;SDS011;697;51.114;6.542;2022-10-22T14:31:50;3.20;;;1.27;;
1404;SDS011;697;51.114;6.542;2022-10-22T14:34:17;4.63;;;1.17;;
1404;SDS011;697;51.114;6.542;2022-10-22T14:36:44;4.77;;;1.20;;
1404;SDS011;697;51.114;6.542;2022-10-22T14:39:11;4.90;;;1.00;;
1404;SDS011;697;51.114;6.542;2022-10-22T14:41:39;5.10;;;0.93;;
1404;SDS011;697;51.114;6.542;2022-10-22T14:44:07;4.77;;;1.23;;
1404;SDS011;697;51.114;6.542;2022-10-22T14:46:38;2.50;;;1.07;;
1404;SDS011;697;51.114;6.542;2022-10-22T14:49:06;6.13;;;1.50;;
1404;SDS011;697;51.114;6.542;2022-10-22T14:51:33;7.57;;;1.17;;
1404;SDS011;697;51.114;6.542;2022-10-22T14:54:00;7.97;;;1.10;;
1404;SDS011;697;51.114;6.542;2022-10-22T14:59:49;3.10;;;1.00;;
1404;SDS011;697;51.114;6.542;2022-10-22T15:02:19;6.70;;;3.17;;
1404;SDS011;697;51.114;6.542;2022-10-22T15:04:46;3.67;;;1.93;;
1404;SDS011;697;51.114;6.542;2022-10-22T15:07:20;3.90;;;1.60;;
1404;SDS011;697;51.114;6.542;2022-10-22T15:10:22;8.37;;;1.50;;
1404;SDS011;697;51.114;6.542;2022-10-22T15:12:49;2.57;;;0.93;;
1404;SDS011;697;51.114;6.542;2022-10-22T15:15:17;3.70;;;0.93;;
1404;SDS011;697;51.114;6.542;2022-10-22T15:17:44;3.70;;;1.20;;
1404;SDS011;697;51.114;6.542;2022-10-22T15:20:11;3.97;;;1.57;;
1404;SDS011;697;51.114;6.542;2022-10-22T15:22:37;5.13;;;1.47;;
1404;SDS011;697;51.114;6.542;2022-10-22T15:25:05;5.97;;;1.20;;
1404;SDS011;697;51.114;6.542;2022-10-22T15:27:33;3.77;;;1.13;;
1404;SDS011;697;51.114;6.542;2022-10-22T15:30:00;5.93;;;1.77;;
1404;SDS011;697;51.114;6.542;2022-10-22T15:32:29;4.30;;;1.60;;
1404;SDS011;697;51.114;6.542;2022-10-22T15:34:57;5.30;;;1.67;;
1404;SDS011;697;51.114;6.542;2022-10-22T15:37:24;7.33;;;1.23;;
1404;SDS011;697;51.114;6.542;2022-10-22T15:39:51;12.37;;;1.97;;
1404;SDS011;697;51.114;6.542;2022-10-22T15:42:18;7.40;;;1.63;;
1404;SDS011;697;51.114;6.542;2022-10-22T15:44:45;6.53;;;1.27;;
1404;SDS011;697;51.114;6.542;2022-10-22T15:47:11;3.73;;;1.17;;
1404;SDS011;697;51.114;6.542;2022-10-22T15:49:40;5.60;;;1.20;;
1404;SDS011;697;51.114;6.542;2022-10-22T15:52:07;4.50;;;1.30;;
1404;SDS011;697;51.114;6.542;2022-10-22T15:54:34;4.43;;;1.30;;
1404;SDS011;697;51.114;6.542;2022-10-22T15:57:01;7.50;;;1.00;;
1404;SDS011;697;51.114;6.542;2022-10-22T15:59:32;6.53;;;1.40;;